James Turecamo — WDC7565 — position and weather

sailwx.info

Track history (hours):
 
Tides and Currents Weather Stations Pressure Air Temp Water Temp Dewpoint Dewpoint Depression Visibility Wind Speed Wind Dir Waves Ship Positions

James Turecamo

Owner: Moran Towing Corporation, New Canaan, CT. More information available from US FCC via Universal Licensing System and Coast Guard Vessel Documentation Center.

Last reported at 2017-Feb-26 07:33 UTC. Time now 2017-Feb-26 07:40 UTC.
Position N 40°38' W 074°08'.

Length 30 m; draft 4.2 m.

Type: Tug. MMSI: 367073380.

Date/timePositionNaut miles runAvg speedWind from/ knotsBaromVisibWave heightAir tempDewpointWater temp
2017-Feb-26 07:33N 40°38' W 074°08'0 0.0
2017-Feb-26 06:33N 40°38' W 074°08'0 0.0
2017-Feb-26 05:33N 40°38' W 074°08'0 0.0
2017-Feb-26 04:33N 40°38' W 074°08'0 0.0
2017-Feb-26 03:33N 40°38' W 074°08'0 0.0
2017-Feb-26 02:29N 40°38' W 074°08'3 3.8
2017-Feb-26 01:33N 40°39' W 074°03'1 0.7
2017-Feb-26 00:33N 40°40' W 074°03'0 0.0
2017-Feb-25 23:33N 40°40' W 074°03'4 3.8
2017-Feb-25 22:33N 40°39' W 074°07'2 1.6
2017-Feb-25 21:33N 40°39' W 074°05'0 0.3
2017-Feb-25 20:33N 40°39' W 074°05'2 2.2
2017-Feb-25 19:33N 40°38' W 074°08'0 0.0
2017-Feb-25 18:33N 40°38' W 074°08'0 0.0
2017-Feb-25 17:33N 40°38' W 074°08'0 0.0
2017-Feb-25 16:33N 40°38' W 074°08'0 0.0
2017-Feb-25 15:33N 40°38' W 074°08'7 2.0
2017-Feb-25 12:11N 40°33' W 074°14'6 8.8
2017-Feb-25 11:33N 40°39' W 074°11'6 6.4
2017-Feb-25 10:33N 40°37' W 074°03'0 0.0
2017-Feb-25 09:33N 40°37' W 074°03'2 2.3
2017-Feb-25 08:33N 40°39' W 074°04'4 3.5
2017-Feb-25 07:33N 40°41' W 074°08'1 0.7
2017-Feb-25 06:33N 40°42' W 074°08'3 3.3
2017-Feb-25 05:33N 40°38' W 074°08'0 0.0
2017-Feb-25 04:33N 40°38' W 074°08'0 0.0
2017-Feb-25 03:32N 40°38' W 074°08'0 0.0
2017-Feb-25 02:32N 40°38' W 074°08'0 0.0
2017-Feb-25 01:33N 40°38' W 074°08'0 0.0
2017-Feb-25 00:33N 40°38' W 074°08'0 0.0
2017-Feb-24 23:33N 40°38' W 074°08'0 0.0
2017-Feb-24 22:32N 40°38' W 074°08'4 3.8
2017-Feb-24 21:32N 40°37' W 074°03'3 2.9
2017-Feb-24 20:33N 40°39' W 074°06'2 1.6
2017-Feb-24 19:33N 40°38' W 074°08'0 0.0
2017-Feb-24 18:33N 40°38' W 074°08'0 0.5
2017-Feb-24 17:33N 40°39' W 074°07'3 3.4
2017-Feb-24 16:33N 40°38' W 074°12'3 2.9
2017-Feb-24 15:33N 40°39' W 074°08'0 0.2
2017-Feb-24 14:33N 40°38' W 074°08'0 0.0
2017-Feb-24 13:33N 40°38' W 074°08'0 0.0
2017-Feb-24 12:33N 40°38' W 074°08'0 0.0
2017-Feb-24 11:32N 40°38' W 074°08'7 2.2
2017-Feb-24 08:20N 40°33' W 074°14'6 8.2
2017-Feb-24 07:33N 40°39' W 074°09'1 1.0
2017-Feb-24 06:33N 40°38' W 074°08'0 0.0
2017-Feb-24 05:33N 40°38' W 074°08'0 0.0
2017-Feb-24 04:33N 40°38' W 074°08'0 0.0
2017-Feb-24 03:33N 40°38' W 074°08'0 0.0
2017-Feb-24 02:33N 40°38' W 074°08'0 0.0
2017-Feb-24 01:33N 40°38' W 074°08'0 0.0
2017-Feb-24 00:33N 40°38' W 074°08'4 3.6
2017-Feb-23 23:33N 40°37' W 074°03'0 0.0
2017-Feb-23 22:33N 40°37' W 074°03'0 0.0
2017-Feb-23 21:33N 40°37' W 074°03'3 2.7
2017-Feb-23 20:33N 40°39' W 074°06'3 3.2
2017-Feb-23 19:33N 40°39' W 074°10'5 4.9
2017-Feb-23 18:33N 40°39' W 074°04'1 1.2
2017-Feb-23 17:33N 40°40' W 074°04'2 1.6
2017-Feb-23 16:33N 40°39' W 074°06'1 1.3
2017-Feb-23 15:33N 40°38' W 074°08'0 0.0
2017-Feb-23 14:33N 40°38' W 074°08'0 0.0
2017-Feb-23 13:33N 40°38' W 074°08'0 0.0
2017-Feb-23 12:33N 40°38' W 074°08'0 0.0
2017-Feb-23 11:33N 40°38' W 074°08'0 0.0
2017-Feb-23 10:33N 40°38' W 074°08'0 0.0
2017-Feb-23 09:33N 40°38' W 074°08'0 0.0
2017-Feb-23 08:33N 40°38' W 074°08'0 0.0
2017-Feb-23 07:33N 40°38' W 074°08'8 6.3
2017-Feb-23 06:14N 40°32' W 074°15'0 0.3
2017-Feb-23 05:32N 40°32' W 074°15'3 1.4
2017-Feb-23 03:21N 40°35' W 074°13'5 6.5
2017-Feb-23 02:33N 40°38' W 074°08'0 0.0
2017-Feb-23 01:33N 40°38' W 074°08'0 0.0
2017-Feb-23 00:33N 40°38' W 074°08'0 0.0
2017-Feb-22 23:32N 40°38' W 074°08'5 5.2
2017-Feb-22 22:33N 40°36' W 074°02'5 4.5
2017-Feb-22 21:30N 40°39' W 074°07'6 5.9
2017-Feb-22 20:33N 40°35' W 074°01'5 5.5
2017-Feb-22 19:33N 40°39' W 074°07'4 3.7
2017-Feb-22 18:33N 40°37' W 074°03'4 4.1
2017-Feb-22 17:33N 40°39' W 074°07'2 1.8
2017-Feb-22 16:33N 40°39' W 074°05'1 0.7
2017-Feb-22 15:33N 40°39' W 074°04'3 2.7
2017-Feb-22 14:33N 40°38' W 074°08'3 2.4
2017-Feb-22 13:28N 40°41' W 074°08'2 2.3
2017-Feb-22 12:33N 40°39' W 074°09'4 4.2
2017-Feb-22 11:33N 40°39' W 074°03'1 0.7
2017-Feb-22 10:33N 40°40' W 074°04'3 3.3
2017-Feb-22 09:31N 40°38' W 074°08'0 0.0
2017-Feb-22 08:31N 40°38' W 074°08'3 3.4
2017-Feb-22 07:31N 40°38' W 074°12'3 3.5
2017-Feb-22 06:33N 40°38' W 074°08'1 1.4
2017-Feb-22 05:33N 40°39' W 074°06'4 3.9
2017-Feb-22 04:33N 40°41' W 074°01'2 2.4
2017-Feb-22 03:33N 40°40' W 074°04'2 2.2
2017-Feb-22 02:33N 40°38' W 074°04'3 2.7
2017-Feb-22 01:33N 40°39' W 074°07'1 0.8
2017-Feb-22 00:28N 40°38' W 074°08'1 1.5
2017-Feb-21 23:33N 40°39' W 074°06'0 0.1
2017-Feb-21 22:33N 40°39' W 074°06'1 1.0
2017-Feb-21 21:33N 40°39' W 074°07'0 0.1
2017-Feb-21 18:23N 40°38' W 074°08'0 0.0
2017-Feb-21 17:32N 40°38' W 074°08'0 0.0
2017-Feb-21 16:29N 40°38' W 074°08'0 0.0
2017-Feb-21 15:32N 40°38' W 074°08'0 0.0
2017-Feb-21 14:32N 40°38' W 074°08'0 0.0
2017-Feb-21 13:32N 40°38' W 074°08'0 0.0
2017-Feb-21 12:22N 40°38' W 074°08'0 0.0
2017-Feb-21 11:31N 40°38' W 074°08'0 0.0
2017-Feb-21 10:31N 40°38' W 074°08'3 2.9
2017-Feb-21 09:32N 40°38' W 074°12'6 1.8
2017-Feb-21 06:28N 40°33' W 074°15'7 7.7
2017-Feb-21 05:32N 40°38' W 074°08'0 0.0
2017-Feb-21 04:32N 40°38' W 074°08'0 0.0
2017-Feb-21 03:32N 40°38' W 074°08'0 0.0
2017-Feb-21 02:32N 40°38' W 074°08'0 0.0
2017-Feb-21 01:28N 40°38' W 074°08'0 0.0
2017-Feb-21 00:31N 40°38' W 074°08'0 0.0
2017-Feb-20 23:31N 40°38' W 074°08'0 0.0
2017-Feb-20 22:28N 40°38' W 074°08'0 0.0
2017-Feb-20 21:31N 40°38' W 074°08'0 0.0
2017-Feb-20 18:13N 40°38' W 074°08'0 0.0
2017-Feb-20 17:31N 40°38' W 074°08'0 0.0
2017-Feb-20 16:31N 40°38' W 074°08'0 0.0
2017-Feb-20 15:31N 40°38' W 074°08'0 0.0
2017-Feb-20 14:31N 40°38' W 074°08'0 0.0
2017-Feb-20 13:31N 40°38' W 074°08'0 0.0
2017-Feb-20 12:31N 40°38' W 074°08'0 0.0
2017-Feb-20 11:31N 40°38' W 074°08'1 0.9
2017-Feb-20 10:33N 40°39' W 074°07'9 9.3
2017-Feb-20 09:33N 40°45' W 073°58'1 0.4
2017-Feb-20 07:33N 40°44' W 073°58'9 7.6
2017-Feb-20 06:19N 40°38' W 074°08'0 0.0
2017-Feb-20 05:31N 40°38' W 074°08'0 0.0
2017-Feb-20 04:31N 40°38' W 074°08'0 0.0
2017-Feb-20 03:31N 40°38' W 074°08'0 0.0
2017-Feb-20 02:33N 40°38' W 074°08'0 0.0
2017-Feb-20 01:33N 40°38' W 074°08'0 0.0
2017-Feb-20 00:33N 40°38' W 074°08'0 0.0
2017-Feb-19 23:33N 40°38' W 074°08'0 0.1
2017-Feb-19 22:33N 40°39' W 074°08'10 9.7
2017-Feb-19 21:34N 40°45' W 073°58'1 1.2
2017-Feb-19 20:33N 40°46' W 073°57'0 0.0
2017-Feb-19 19:27N 40°46' W 073°57'0 0.0
2017-Feb-19 18:33N 40°46' W 073°57'10 9.8
2017-Feb-19 17:33N 40°39' W 074°06'1 1.1
2017-Feb-19 16:33N 40°38' W 074°08'0 0.0
2017-Feb-19 15:33N 40°38' W 074°08'0 0.0
2017-Feb-19 14:30N 40°38' W 074°08'2 2.5
2017-Feb-19 13:33N 40°39' W 074°05'0 0.3
2017-Feb-19 12:33N 40°39' W 074°05'2 2.2
2017-Feb-19 11:33N 40°38' W 074°08'8 8.5
2017-Feb-19 10:33N 40°43' W 073°58'6 2.9
2017-Feb-19 08:33N 40°48' W 073°55'6 6.5
2017-Feb-19 07:33N 40°42' W 073°59'5 5.5
2017-Feb-19 06:33N 40°39' W 074°05'2 2.3
2017-Feb-19 05:31N 40°38' W 074°08'0 0.0
2017-Feb-19 04:33N 40°38' W 074°08'0 0.0
2017-Feb-19 03:33N 40°38' W 074°08'0 0.0
2017-Feb-19 02:33N 40°38' W 074°08'0 0.0
2017-Feb-19 01:33N 40°38' W 074°08'0 0.0
2017-Feb-19 00:33N 40°38' W 074°08'0 0.0
2017-Feb-18 23:33N 40°38' W 074°08'0 0.0
2017-Feb-18 22:33N 40°38' W 074°08'0 0.0
2017-Feb-18 21:33N 40°38' W 074°08'0 0.0
2017-Feb-18 20:33N 40°38' W 074°08'3 2.8
2017-Feb-18 19:33N 40°38' W 074°12'3 2.9
2017-Feb-18 18:33N 40°38' W 074°08'0 0.0
2017-Feb-18 17:29N 40°38' W 074°08'0 0.0
2017-Feb-18 16:33N 40°38' W 074°08'0 0.0
2017-Feb-18 15:33N 40°38' W 074°08'0 0.0
2017-Feb-18 14:06N 40°38' W 074°08'0 0.0
2017-Feb-18 13:32N 40°38' W 074°08'0 0.0
2017-Feb-18 12:33N 40°38' W 074°08'0 0.0
2017-Feb-18 11:32N 40°38' W 074°08'0 0.0
2017-Feb-18 10:32N 40°38' W 074°08'0 0.0
2017-Feb-18 09:33N 40°38' W 074°08'0 0.0
2017-Feb-18 07:33N 40°38' W 074°08'3 3.0
2017-Feb-18 06:33N 40°38' W 074°12'6 5.0
2017-Feb-18 05:20N 40°33' W 074°15'4 4.8
2017-Feb-18 04:31N 40°36' W 074°12'5 5.2
2017-Feb-18 03:33N 40°39' W 074°07'0 0.3
2017-Feb-18 02:33N 40°39' W 074°06'1 1.2
2017-Feb-18 01:33N 40°38' W 074°08'0 0.0
2017-Feb-18 00:33N 40°38' W 074°08'0 0.0
2017-Feb-17 23:33N 40°38' W 074°08'0 0.0
2017-Feb-17 22:33N 40°38' W 074°08'3 2.8
2017-Feb-17 21:33N 40°39' W 074°04'3 2.8
2017-Feb-17 20:33N 40°38' W 074°08'0 0.0
2017-Feb-17 19:33N 40°38' W 074°08'0 0.0
2017-Feb-17 18:33N 40°38' W 074°08'0 0.0
2017-Feb-17 17:33N 40°38' W 074°08'0 0.0
2017-Feb-17 16:33N 40°38' W 074°08'0 0.0
2017-Feb-17 15:33N 40°38' W 074°08'0 0.0
2017-Feb-17 14:33N 40°38' W 074°08'0 0.0
2017-Feb-17 13:33N 40°38' W 074°08'0 0.0
2017-Feb-17 12:31N 40°38' W 074°08'0 0.0
2017-Feb-17 11:33N 40°38' W 074°08'0 0.0
2017-Feb-17 10:33N 40°38' W 074°08'0 0.0
2017-Feb-17 09:32N 40°38' W 074°08'0 0.0
2017-Feb-17 08:33N 40°38' W 074°08'0 0.0
2017-Feb-17 07:33N 40°38' W 074°08'0 0.0
2017-Feb-17 06:33N 40°38' W 074°08'0 0.0
2017-Feb-17 05:33N 40°38' W 074°08'0 0.0
2017-Feb-17 04:30N 40°38' W 074°08'0 0.0
2017-Feb-17 03:29N 40°38' W 074°08'0 0.0
2017-Feb-17 02:32N 40°38' W 074°08'0 0.0
2017-Feb-17 01:29N 40°38' W 074°08'0 0.0
2017-Feb-17 00:24N 40°38' W 074°08'0 0.0
2017-Feb-16 21:25N 40°38' W 074°08'0 0.0
2017-Feb-16 20:33N 40°38' W 074°08'0 0.0
2017-Feb-16 19:33N 40°38' W 074°08'0 0.0
2017-Feb-16 18:33N 40°38' W 074°08'0 0.0
2017-Feb-16 17:32N 40°38' W 074°08'0 0.0
2017-Feb-16 16:33N 40°38' W 074°08'0 0.0
2017-Feb-16 15:33N 40°38' W 074°08'0 0.0
2017-Feb-16 14:33N 40°38' W 074°08'0 0.0
2017-Feb-16 13:33N 40°38' W 074°08'0 0.0
2017-Feb-16 12:33N 40°38' W 074°08'3 1.0
2017-Feb-16 09:19N 40°38' W 074°12'3 1.9
2017-Feb-16 07:33N 40°38' W 074°08'  
Track history (hours):
 
Tides and Currents Weather Stations Pressure Air Temp Water Temp Dewpoint Dewpoint Depression Visibility Wind Speed Wind Dir Waves Ship Positions

James Turecamo

Owner: Moran Towing Corporation, New Canaan, CT. More information available from US FCC via Universal Licensing System and Coast Guard Vessel Documentation Center.

Last reported at 2017-Feb-26 07:33 UTC. Time now 2017-Feb-26 07:40 UTC.
Position N 40°38' W 074°08'.

Length 30 m; draft 4.2 m.

Type: Tug. MMSI: 367073380.

Date/timePositionNaut miles runAvg speedWind from/ knotsBaromVisibWave heightAir tempDewpointWater temp
2017-Feb-26 07:33N 40°38' W 074°08'0 0.0
2017-Feb-26 06:33N 40°38' W 074°08'0 0.0
2017-Feb-26 05:33N 40°38' W 074°08'0 0.0
2017-Feb-26 04:33N 40°38' W 074°08'0 0.0
2017-Feb-26 03:33N 40°38' W 074°08'0 0.0
2017-Feb-26 02:29N 40°38' W 074°08'3 3.8
2017-Feb-26 01:33N 40°39' W 074°03'1 0.7
2017-Feb-26 00:33N 40°40' W 074°03'0 0.0
2017-Feb-25 23:33N 40°40' W 074°03'4 3.8
2017-Feb-25 22:33N 40°39' W 074°07'2 1.6
2017-Feb-25 21:33N 40°39' W 074°05'0 0.3
2017-Feb-25 20:33N 40°39' W 074°05'2 2.2
2017-Feb-25 19:33N 40°38' W 074°08'0 0.0
2017-Feb-25 18:33N 40°38' W 074°08'0 0.0
2017-Feb-25 17:33N 40°38' W 074°08'0 0.0
2017-Feb-25 16:33N 40°38' W 074°08'0 0.0
2017-Feb-25 15:33N 40°38' W 074°08'7 2.0
2017-Feb-25 12:11N 40°33' W 074°14'6 8.8
2017-Feb-25 11:33N 40°39' W 074°11'6 6.4
2017-Feb-25 10:33N 40°37' W 074°03'0 0.0
2017-Feb-25 09:33N 40°37' W 074°03'2 2.3
2017-Feb-25 08:33N 40°39' W 074°04'4 3.5
2017-Feb-25 07:33N 40°41' W 074°08'1 0.7
2017-Feb-25 06:33N 40°42' W 074°08'3 3.3
2017-Feb-25 05:33N 40°38' W 074°08'0 0.0
2017-Feb-25 04:33N 40°38' W 074°08'0 0.0
2017-Feb-25 03:32N 40°38' W 074°08'0 0.0
2017-Feb-25 02:32N 40°38' W 074°08'0 0.0
2017-Feb-25 01:33N 40°38' W 074°08'0 0.0
2017-Feb-25 00:33N 40°38' W 074°08'0 0.0
2017-Feb-24 23:33N 40°38' W 074°08'0 0.0
2017-Feb-24 22:32N 40°38' W 074°08'4 3.8
2017-Feb-24 21:32N 40°37' W 074°03'3 2.9
2017-Feb-24 20:33N 40°39' W 074°06'2 1.6
2017-Feb-24 19:33N 40°38' W 074°08'0 0.0
2017-Feb-24 18:33N 40°38' W 074°08'0 0.5
2017-Feb-24 17:33N 40°39' W 074°07'3 3.4
2017-Feb-24 16:33N 40°38' W 074°12'3 2.9
2017-Feb-24 15:33N 40°39' W 074°08'0 0.2
2017-Feb-24 14:33N 40°38' W 074°08'0 0.0
2017-Feb-24 13:33N 40°38' W 074°08'0 0.0
2017-Feb-24 12:33N 40°38' W 074°08'0 0.0
2017-Feb-24 11:32N 40°38' W 074°08'7 2.2
2017-Feb-24 08:20N 40°33' W 074°14'6 8.2
2017-Feb-24 07:33N 40°39' W 074°09'1 1.0
2017-Feb-24 06:33N 40°38' W 074°08'0 0.0
2017-Feb-24 05:33N 40°38' W 074°08'0 0.0
2017-Feb-24 04:33N 40°38' W 074°08'0 0.0
2017-Feb-24 03:33N 40°38' W 074°08'0 0.0
2017-Feb-24 02:33N 40°38' W 074°08'0 0.0
2017-Feb-24 01:33N 40°38' W 074°08'0 0.0
2017-Feb-24 00:33N 40°38' W 074°08'4 3.6
2017-Feb-23 23:33N 40°37' W 074°03'0 0.0
2017-Feb-23 22:33N 40°37' W 074°03'0 0.0
2017-Feb-23 21:33N 40°37' W 074°03'3 2.7
2017-Feb-23 20:33N 40°39' W 074°06'3 3.2
2017-Feb-23 19:33N 40°39' W 074°10'5 4.9
2017-Feb-23 18:33N 40°39' W 074°04'1 1.2
2017-Feb-23 17:33N 40°40' W 074°04'2 1.6
2017-Feb-23 16:33N 40°39' W 074°06'1 1.3
2017-Feb-23 15:33N 40°38' W 074°08'0 0.0
2017-Feb-23 14:33N 40°38' W 074°08'0 0.0
2017-Feb-23 13:33N 40°38' W 074°08'0 0.0
2017-Feb-23 12:33N 40°38' W 074°08'0 0.0
2017-Feb-23 11:33N 40°38' W 074°08'0 0.0
2017-Feb-23 10:33N 40°38' W 074°08'0 0.0
2017-Feb-23 09:33N 40°38' W 074°08'0 0.0
2017-Feb-23 08:33N 40°38' W 074°08'0 0.0
2017-Feb-23 07:33N 40°38' W 074°08'8 6.3
2017-Feb-23 06:14N 40°32' W 074°15'0 0.3
2017-Feb-23 05:32N 40°32' W 074°15'3 1.4
2017-Feb-23 03:21N 40°35' W 074°13'5 6.5
2017-Feb-23 02:33N 40°38' W 074°08'0 0.0
2017-Feb-23 01:33N 40°38' W 074°08'0 0.0
2017-Feb-23 00:33N 40°38' W 074°08'0 0.0
2017-Feb-22 23:32N 40°38' W 074°08'5 5.2
2017-Feb-22 22:33N 40°36' W 074°02'5 4.5
2017-Feb-22 21:30N 40°39' W 074°07'6 5.9
2017-Feb-22 20:33N 40°35' W 074°01'5 5.5
2017-Feb-22 19:33N 40°39' W 074°07'4 3.7
2017-Feb-22 18:33N 40°37' W 074°03'4 4.1
2017-Feb-22 17:33N 40°39' W 074°07'2 1.8
2017-Feb-22 16:33N 40°39' W 074°05'1 0.7
2017-Feb-22 15:33N 40°39' W 074°04'3 2.7
2017-Feb-22 14:33N 40°38' W 074°08'3 2.4
2017-Feb-22 13:28N 40°41' W 074°08'2 2.3
2017-Feb-22 12:33N 40°39' W 074°09'4 4.2
2017-Feb-22 11:33N 40°39' W 074°03'1 0.7
2017-Feb-22 10:33N 40°40' W 074°04'3 3.3
2017-Feb-22 09:31N 40°38' W 074°08'0 0.0
2017-Feb-22 08:31N 40°38' W 074°08'3 3.4
2017-Feb-22 07:31N 40°38' W 074°12'3 3.5
2017-Feb-22 06:33N 40°38' W 074°08'1 1.4
2017-Feb-22 05:33N 40°39' W 074°06'4 3.9
2017-Feb-22 04:33N 40°41' W 074°01'2 2.4
2017-Feb-22 03:33N 40°40' W 074°04'2 2.2
2017-Feb-22 02:33N 40°38' W 074°04'3 2.7
2017-Feb-22 01:33N 40°39' W 074°07'1 0.8
2017-Feb-22 00:28N 40°38' W 074°08'1 1.5
2017-Feb-21 23:33N 40°39' W 074°06'0 0.1
2017-Feb-21 22:33N 40°39' W 074°06'1 1.0
2017-Feb-21 21:33N 40°39' W 074°07'0 0.1
2017-Feb-21 18:23N 40°38' W 074°08'0 0.0
2017-Feb-21 17:32N 40°38' W 074°08'0 0.0
2017-Feb-21 16:29N 40°38' W 074°08'0 0.0
2017-Feb-21 15:32N 40°38' W 074°08'0 0.0
2017-Feb-21 14:32N 40°38' W 074°08'0 0.0
2017-Feb-21 13:32N 40°38' W 074°08'0 0.0
2017-Feb-21 12:22N 40°38' W 074°08'0 0.0
2017-Feb-21 11:31N 40°38' W 074°08'0 0.0
2017-Feb-21 10:31N 40°38' W 074°08'3 2.9
2017-Feb-21 09:32N 40°38' W 074°12'6 1.8
2017-Feb-21 06:28N 40°33' W 074°15'7 7.7
2017-Feb-21 05:32N 40°38' W 074°08'0 0.0
2017-Feb-21 04:32N 40°38' W 074°08'0 0.0
2017-Feb-21 03:32N 40°38' W 074°08'0 0.0
2017-Feb-21 02:32N 40°38' W 074°08'0 0.0
2017-Feb-21 01:28N 40°38' W 074°08'0 0.0
2017-Feb-21 00:31N 40°38' W 074°08'0 0.0
2017-Feb-20 23:31N 40°38' W 074°08'0 0.0
2017-Feb-20 22:28N 40°38' W 074°08'0 0.0
2017-Feb-20 21:31N 40°38' W 074°08'0 0.0
2017-Feb-20 18:13N 40°38' W 074°08'0 0.0
2017-Feb-20 17:31N 40°38' W 074°08'0 0.0
2017-Feb-20 16:31N 40°38' W 074°08'0 0.0
2017-Feb-20 15:31N 40°38' W 074°08'0 0.0
2017-Feb-20 14:31N 40°38' W 074°08'0 0.0
2017-Feb-20 13:31N 40°38' W 074°08'0 0.0
2017-Feb-20 12:31N 40°38' W 074°08'0 0.0
2017-Feb-20 11:31N 40°38' W 074°08'1 0.9
2017-Feb-20 10:33N 40°39' W 074°07'9 9.3
2017-Feb-20 09:33N 40°45' W 073°58'1 0.4
2017-Feb-20 07:33N 40°44' W 073°58'9 7.6
2017-Feb-20 06:19N 40°38' W 074°08'0 0.0
2017-Feb-20 05:31N 40°38' W 074°08'0 0.0
2017-Feb-20 04:31N 40°38' W 074°08'0 0.0
2017-Feb-20 03:31N 40°38' W 074°08'0 0.0
2017-Feb-20 02:33N 40°38' W 074°08'0 0.0
2017-Feb-20 01:33N 40°38' W 074°08'0 0.0
2017-Feb-20 00:33N 40°38' W 074°08'0 0.0
2017-Feb-19 23:33N 40°38' W 074°08'0 0.1
2017-Feb-19 22:33N 40°39' W 074°08'10 9.7
2017-Feb-19 21:34N 40°45' W 073°58'1 1.2
2017-Feb-19 20:33N 40°46' W 073°57'0 0.0
2017-Feb-19 19:27N 40°46' W 073°57'0 0.0
2017-Feb-19 18:33N 40°46' W 073°57'10 9.8
2017-Feb-19 17:33N 40°39' W 074°06'1 1.1
2017-Feb-19 16:33N 40°38' W 074°08'0 0.0
2017-Feb-19 15:33N 40°38' W 074°08'0 0.0
2017-Feb-19 14:30N 40°38' W 074°08'2 2.5
2017-Feb-19 13:33N 40°39' W 074°05'0 0.3
2017-Feb-19 12:33N 40°39' W 074°05'2 2.2
2017-Feb-19 11:33N 40°38' W 074°08'8 8.5
2017-Feb-19 10:33N 40°43' W 073°58'6 2.9
2017-Feb-19 08:33N 40°48' W 073°55'6 6.5
2017-Feb-19 07:33N 40°42' W 073°59'5 5.5
2017-Feb-19 06:33N 40°39' W 074°05'2 2.3
2017-Feb-19 05:31N 40°38' W 074°08'0 0.0
2017-Feb-19 04:33N 40°38' W 074°08'0 0.0
2017-Feb-19 03:33N 40°38' W 074°08'0 0.0
2017-Feb-19 02:33N 40°38' W 074°08'0 0.0
2017-Feb-19 01:33N 40°38' W 074°08'0 0.0
2017-Feb-19 00:33N 40°38' W 074°08'0 0.0
2017-Feb-18 23:33N 40°38' W 074°08'0 0.0
2017-Feb-18 22:33N 40°38' W 074°08'0 0.0
2017-Feb-18 21:33N 40°38' W 074°08'0 0.0
2017-Feb-18 20:33N 40°38' W 074°08'3 2.8
2017-Feb-18 19:33N 40°38' W 074°12'3 2.9
2017-Feb-18 18:33N 40°38' W 074°08'0 0.0
2017-Feb-18 17:29N 40°38' W 074°08'0 0.0
2017-Feb-18 16:33N 40°38' W 074°08'0 0.0
2017-Feb-18 15:33N 40°38' W 074°08'0 0.0
2017-Feb-18 14:06N 40°38' W 074°08'0 0.0
2017-Feb-18 13:32N 40°38' W 074°08'0 0.0
2017-Feb-18 12:33N 40°38' W 074°08'0 0.0
2017-Feb-18 11:32N 40°38' W 074°08'0 0.0
2017-Feb-18 10:32N 40°38' W 074°08'0 0.0
2017-Feb-18 09:33N 40°38' W 074°08'0 0.0
2017-Feb-18 07:33N 40°38' W 074°08'3 3.0
2017-Feb-18 06:33N 40°38' W 074°12'6 5.0
2017-Feb-18 05:20N 40°33' W 074°15'4 4.8
2017-Feb-18 04:31N 40°36' W 074°12'5 5.2
2017-Feb-18 03:33N 40°39' W 074°07'0 0.3
2017-Feb-18 02:33N 40°39' W 074°06'1 1.2
2017-Feb-18 01:33N 40°38' W 074°08'0 0.0
2017-Feb-18 00:33N 40°38' W 074°08'0 0.0
2017-Feb-17 23:33N 40°38' W 074°08'0 0.0
2017-Feb-17 22:33N 40°38' W 074°08'3 2.8
2017-Feb-17 21:33N 40°39' W 074°04'3 2.8
2017-Feb-17 20:33N 40°38' W 074°08'0 0.0
2017-Feb-17 19:33N 40°38' W 074°08'0 0.0
2017-Feb-17 18:33N 40°38' W 074°08'0 0.0
2017-Feb-17 17:33N 40°38' W 074°08'0 0.0
2017-Feb-17 16:33N 40°38' W 074°08'0 0.0
2017-Feb-17 15:33N 40°38' W 074°08'0 0.0
2017-Feb-17 14:33N 40°38' W 074°08'0 0.0
2017-Feb-17 13:33N 40°38' W 074°08'0 0.0
2017-Feb-17 12:31N 40°38' W 074°08'0 0.0
2017-Feb-17 11:33N 40°38' W 074°08'0 0.0
2017-Feb-17 10:33N 40°38' W 074°08'0 0.0
2017-Feb-17 09:32N 40°38' W 074°08'0 0.0
2017-Feb-17 08:33N 40°38' W 074°08'0 0.0
2017-Feb-17 07:33N 40°38' W 074°08'0 0.0
2017-Feb-17 06:33N 40°38' W 074°08'0 0.0
2017-Feb-17 05:33N 40°38' W 074°08'0 0.0
2017-Feb-17 04:30N 40°38' W 074°08'0 0.0
2017-Feb-17 03:29N 40°38' W 074°08'0 0.0
2017-Feb-17 02:32N 40°38' W 074°08'0 0.0
2017-Feb-17 01:29N 40°38' W 074°08'0 0.0
2017-Feb-17 00:24N 40°38' W 074°08'0 0.0
2017-Feb-16 21:25N 40°38' W 074°08'0 0.0
2017-Feb-16 20:33N 40°38' W 074°08'0 0.0
2017-Feb-16 19:33N 40°38' W 074°08'0 0.0
2017-Feb-16 18:33N 40°38' W 074°08'0 0.0
2017-Feb-16 17:32N 40°38' W 074°08'0 0.0
2017-Feb-16 16:33N 40°38' W 074°08'0 0.0
2017-Feb-16 15:33N 40°38' W 074°08'0 0.0
2017-Feb-16 14:33N 40°38' W 074°08'0 0.0
2017-Feb-16 13:33N 40°38' W 074°08'0 0.0
2017-Feb-16 12:33N 40°38' W 074°08'3 1.0
2017-Feb-16 09:19N 40°38' W 074°12'3 1.9
2017-Feb-16 07:33N 40°38' W 074°08'  

Dump ship's entire track history